Pagrindinis puslapis
METAR-TAF:

METAR-TAF

Oro uostai :

Ambonas, Indonezija

platuma: 03-42S, ilguma: 128-05E, Aukštis: 12 m

Dabartinis oras

Ataskaita buvo paskelbta 7 valandos ir 24 minutes, ne 10:30 UTC
Vėjas 6 kt iš Šiaurės/Šiaurės Vakarų
Temperatūra 25°C
Drėgmė 94%
Slėgis 1008 hPa
Matomumas 10 km arba daugiau
Išsisklaidę debesys ne aukštis 1800 ft

METAR: WAPP 301030Z 34006KT 9999 SCT018 25/24 Q1008 NOSIG

Laikas: 02:54 (17:54 UTC)

Prognozė

Ataskaita buvo paskelbta 54 minutes, ne 17:00 UTC
Prognozė galioja nuo 30 metu 18 UTC su 01 metu 18 UTC
Vėjas 6 kt iš Šiaurės/Šiaurės Vakarų
Matomumas 10 km arba daugiau
Išsisklaidę debesys ne aukštis 1700 ft
Tapsmas
nuo 30 metu 22 UTC su 01 metu 00 UTC
Vėjas 9 kt iš Pietų

TAF: WAPP 301700Z 3018/0118 34006KT 9999 SCT017 BECMG 3022/0100 19009KT

Orai ataskaitas ir orų prognozės (METAR, TAF).

turimą stotys yra geltonos ir raudonos taškus žemėlapyje.

Perkelti pele per norėdami pamatyti stoties vardą.

Tada spustelėkite, norėdami matyti oro stebėjimo ir prognozės.

Norėdami pakeisti žemėlapį: spustelėkite ant žalios mygtukų su juodo kryžiaus žemyn,; žalią mygtuką su brūkšneliu, jei norite nutolinti; arba žalių rodyklių gretimoms žemėlapius.


METAR-TAF: